Time;durP1;ratioP1;P1;durP2;ratioP2;P2;SDS_P1;SDS_P2;PMS_P1;PMS_P2;Temp;Humidity;BMP_temperature;BMP_pressure;BME280_temperature;BME280_humidity;BME280_pressure;Samples;Min_cycle;Max_cycle;Signal;HPM_P1;HPM_P2
2021/04/16 00:01:05;;;;;;;10.75;8.70;;;;;;;9.34;67.19;100449.75;1718620;83;21175;-54
2021/04/16 00:03:35;;;;;;;9.68;8.05;;;;;;;9.35;66.88;100446.70;1718488;82;21143;-55
2021/04/16 00:06:07;;;;;;;9.45;7.95;;;;;;;8.63;68.82;100444.37;1720520;82;21432;-54
2021/04/16 00:08:35;;;;;;;10.88;8.55;;;;;;;9.03;68.09;100441.19;1746006;81;21538;-62
2021/04/16 00:11:13;;;;;;;9.83;8.20;;;;;;;9.30;67.23;100450.64;1748035;82;21155;-62
2021/04/16 00:13:42;;;;;;;9.38;7.90;;;;;;;8.47;69.52;100454.47;1748152;81;21176;-54
2021/04/16 00:16:16;;;;;;;8.78;7.67;;;;;;;8.30;69.98;100448.81;1739329;81;21296;-62
2021/04/16 00:18:46;;;;;;;9.10;7.60;;;;;;;8.89;68.62;100445.16;1720220;82;21171;-62
2021/04/16 00:21:14;;;;;;;10.55;8.55;;;;;;;9.29;67.24;100444.95;1718868;83;21281;-54
2021/04/16 00:23:41;;;;;;;8.80;7.83;;;;;;;8.75;68.75;100447.84;1718769;82;21178;-54
2021/04/16 00:26:11;;;;;;;9.70;7.53;;;;;;;8.47;69.46;100443.98;1736509;81;21139;-54
2021/04/16 00:28:40;;;;;;;8.90;7.87;;;;;;;8.39;69.84;100454.92;1748159;82;21179;-54
2021/04/16 00:31:16;;;;;;;9.23;7.97;;;;;;;9.16;67.64;100445.93;1748178;82;21171;-54
2021/04/16 00:33:44;;;;;;;8.48;7.50;;;;;;;9.29;66.77;100454.15;1747513;82;21172;-62
2021/04/16 00:36:13;;;;;;;8.63;7.45;;;;;;;9.26;66.64;100448.95;1745954;82;21131;-62
2021/04/16 00:38:41;;;;;;;9.53;7.87;;;;;;;9.01;67.22;100450.37;1748148;81;21172;-54
2021/04/16 00:41:15;;;;;;;7.77;6.50;;;;;;;9.14;66.59;100448.55;1748402;82;21724;-55
2021/04/16 00:43:44;;;;;;;9.58;7.67;;;;;;;9.13;66.48;100442.00;1745538;82;21534;-55
2021/04/16 00:46:19;;;;;;;8.30;6.53;;;;;;;9.17;66.43;100439.80;1718561;82;21297;-63
2021/04/16 00:48:54;;;;;;;8.88;7.45;;;;;;;8.59;67.64;100441.78;1718373;82;21159;-62
2021/04/16 00:51:34;;;;;;;8.50;6.95;;;;;;;8.18;68.93;100439.22;1721986;82;21281;-62
2021/04/16 00:54:02;;;;;;;8.15;7.12;;;;;;;8.73;67.80;100442.62;1726071;82;21178;-55
2021/04/16 00:56:31;;;;;;;8.85;7.50;;;;;;;8.11;69.31;100449.28;1707382;83;21306;-55
2021/04/16 00:59:01;;;;;;;8.33;6.87;;;;;;;8.87;67.46;100450.86;1708461;83;21171;-54
2021/04/16 01:01:30;;;;;;;8.93;7.15;;;;;;;9.03;66.53;100447.75;1716402;82;21135;-62
2021/04/16 01:04:00;;;;;;;7.07;6.20;;;;;;;9.16;66.11;100449.87;1724325;82;21638;-54
2021/04/16 01:06:27;;;;;;;8.03;6.85;;;;;;;9.15;65.86;100446.35;1731971;82;21158;-54
2021/04/16 01:08:55;;;;;;;9.18;7.08;;;;;;;9.14;65.95;100436.73;1713742;82;21620;-54
2021/04/16 01:11:22;;;;;;;7.65;6.05;;;;;;;8.68;67.40;100439.56;1743222;81;21614;-62
2021/04/16 01:13:50;;;;;;;7.95;6.83;;;;;;;8.15;68.71;100440.98;1718401;82;21135;-62
2021/04/16 01:16:22;;;;;;;10.20;8.53;;;;;;;8.45;68.03;100428.23;1718428;83;21151;-54
2021/04/16 01:18:50;;;;;;;8.33;7.42;;;;;;;8.83;66.58;100433.41;1718508;82;21151;-62
2021/04/16 01:21:22;;;;;;;8.95;7.62;;;;;;;8.86;66.27;100430.73;1743483;82;21128;-62
2021/04/16 01:24:21;;;;;;;9.70;8.33;;;;;;;8.83;66.19;100430.78;1748249;81;21151;-62
2021/04/16 01:26:51;;;;;;;9.80;7.22;;;;;;;8.86;65.93;100430.73;1748248;81;21124;-54
2021/04/16 01:29:19;;;;;;;9.70;7.87;;;;;;;8.85;65.74;100432.93;1750618;81;21709;-62
2021/04/16 01:31:47;;;;;;;10.05;7.62;;;;;;;8.82;65.65;100437.77;1761518;81;21158;-54
2021/04/16 01:34:23;;;;;;;8.98;7.10;;;;;;;8.80;65.66;100430.34;1761441;80;21200;-62
2021/04/16 01:36:54;;;;;;;9.85;7.47;;;;;;;8.78;65.67;100432.98;1761520;81;21135;-62
2021/04/16 01:39:26;;;;;;;9.20;7.67;;;;;;;8.76;65.76;100433.85;1740165;80;21643;-62
2021/04/16 01:41:55;;;;;;;9.65;7.45;;;;;;;8.74;65.83;100436.50;1761493;81;21138;-54
2021/04/16 01:44:25;;;;;;;9.35;7.60;;;;;;;8.75;65.76;100432.99;1761711;81;21575;-62
2021/04/16 01:47:04;;;;;;;8.30;6.35;;;;;;;8.71;65.76;100436.92;1761250;81;21095;-62
2021/04/16 01:49:46;;;;;;;7.90;6.60;;;;;;;8.63;65.70;100435.20;1757942;81;21208;-62
2021/04/16 01:52:19;;;;;;;8.90;7.12;;;;;;;8.68;65.64;100433.00;1761958;81;21526;-62
2021/04/16 01:54:51;;;;;;;7.08;6.25;;;;;;;8.63;65.58;100434.34;1761423;80;21139;-53
2021/04/16 01:57:24;;;;;;;8.15;6.50;;;;;;;8.65;65.65;100433.90;1753009;81;21115;-53
2021/04/16 01:59:53;;;;;;;7.92;6.58;;;;;;;8.64;65.73;100424.28;1750995;81;21115;-54
2021/04/16 02:02:28;;;;;;;9.28;7.12;;;;;;;8.65;65.70;100428.65;1761464;81;21131;-62
2021/04/16 02:04:57;;;;;;;8.28;6.70;;;;;;;8.66;65.77;100426.88;1760705;81;21111;-54
2021/04/16 02:07:26;;;;;;;9.13;6.90;;;;;;;8.63;65.82;100431.72;1748900;81;21167;-54
2021/04/16 02:09:54;;;;;;;9.03;7.40;;;;;;;8.63;65.82;100433.89;1761598;81;21162;-62
2021/04/16 02:12:23;;;;;;;7.75;6.60;;;;;;;8.64;65.70;100437.40;1761432;81;21182;-62
2021/04/16 02:14:51;;;;;;;9.75;7.58;;;;;;;8.60;65.52;100436.97;1759254;81;21290;-53
2021/04/16 02:17:23;;;;;;;9.35;7.72;;;;;;;8.60;65.49;100435.23;1734838;81;21566;-54
2021/04/16 02:19:54;;;;;;;7.62;6.53;;;;;;;8.57;65.38;100440.49;1761471;80;21159;-62
2021/04/16 02:22:24;;;;;;;9.98;7.65;;;;;;;8.55;65.47;100440.05;1761618;81;21151;-62
2021/04/16 02:24:52;;;;;;;8.37;7.07;;;;;;;8.55;65.49;100446.19;1749630;80;21106;-61
2021/04/16 02:27:23;;;;;;;9.55;7.92;;;;;;;8.51;65.47;100455.36;1749790;81;21600;-53
2021/04/16 02:29:51;;;;;;;8.73;6.95;;;;;;;8.45;65.41;100453.14;1761423;80;21178;-62
2021/04/16 02:32:19;;;;;;;8.35;6.40;;;;;;;8.51;65.41;100453.63;1760793;81;21110;-54
2021/04/16 02:34:47;;;;;;;9.10;7.00;;;;;;;8.43;65.20;100447.03;1741658;80;21188;-62
2021/04/16 02:37:18;;;;;;;7.62;6.30;;;;;;;8.47;65.15;100446.15;1743794;81;21114;-53
2021/04/16 02:39:46;;;;;;;8.03;5.87;;;;;;;8.46;64.97;100451.41;1761705;81;21590;-62
2021/04/16 02:42:13;;;;;;;7.85;6.03;;;;;;;8.43;64.84;100453.59;1760670;81;21158;-54
2021/04/16 02:44:42;;;;;;;7.05;5.87;;;;;;;8.43;64.95;100452.27;1732605;81;21180;-54
2021/04/16 02:47:11;;;;;;;7.37;5.83;;;;;;;8.41;64.94;100450.09;1731248;83;21178;-62
2021/04/16 02:49:39;;;;;;;7.35;5.35;;;;;;;8.39;64.86;100451.84;1731031;81;21122;-62
2021/04/16 02:52:08;;;;;;;6.25;5.20;;;;;;;8.41;64.83;100454.48;1740207;81;21143;-54
2021/04/16 02:54:35;;;;;;;6.17;4.90;;;;;;;8.41;64.84;100456.65;1731259;81;21172;-54
2021/04/16 02:57:06;;;;;;;7.00;5.12;;;;;;;8.46;64.73;100460.14;1756197;81;21092;-54
2021/04/16 02:59:35;;;;;;;6.95;5.30;;;;;;;8.50;64.65;100464.10;1760989;81;21174;-63
2021/04/16 03:02:05;;;;;;;6.22;4.53;;;;;;;8.42;64.63;100478.07;1741298;81;21284;-62
2021/04/16 03:04:41;;;;;;;5.22;4.50;;;;;;;8.47;64.59;100469.76;1813262;77;22595;-52
2021/04/16 03:07:11;;;;;;;7.78;5.22;;;;;;;8.44;64.51;100474.15;1762449;81;21151;-53
2021/04/16 03:09:39;;;;;;;5.60;4.87;;;;;;;8.42;64.58;100475.45;1760650;81;21260;-63
2021/04/16 03:12:09;;;;;;;5.35;4.30;;;;;;;8.41;64.50;100477.63;1733461;81;21159;-62
2021/04/16 03:14:38;;;;;;;5.17;4.45;;;;;;;8.35;64.27;100481.61;1726535;83;21128;-54
2021/04/16 03:17:05;;;;;;;4.85;4.10;;;;;;;8.37;64.17;100477.23;1706788;84;21152;-63
2021/04/16 03:19:34;;;;;;;5.10;4.17;;;;;;;8.41;64.12;100479.40;1716235;83;21162;-63
2021/04/16 03:22:04;;;;;;;4.83;3.70;;;;;;;8.44;64.31;100488.13;1718234;83;21142;-55
2021/04/16 03:24:31;;;;;;;5.25;4.08;;;;;;;8.31;64.25;100484.66;1718349;82;21153;-54
2021/04/16 03:26:59;;;;;;;4.40;3.77;;;;;;;8.36;64.09;100480.73;1716615;83;21297;-62
2021/04/16 03:29:27;;;;;;;4.40;3.50;;;;;;;8.35;64.03;100478.98;1717298;83;21586;-54
2021/04/16 03:31:55;;;;;;;5.45;3.70;;;;;;;8.32;63.99;100477.67;1718321;83;21296;-54
2021/04/16 03:34:23;;;;;;;4.65;3.65;;;;;;;8.31;63.98;100480.72;1716639;83;21175;-53
2021/04/16 03:36:53;;;;;;;4.65;3.87;;;;;;;8.32;64.03;100474.59;1714721;83;21156;-63
2021/04/16 03:39:21;;;;;;;4.40;3.47;;;;;;;8.36;63.96;100478.53;1715715;83;21135;-63
2021/04/16 03:41:49;;;;;;;5.03;3.80;;;;;;;8.28;64.08;100480.72;1720344;83;21194;-63
2021/04/16 03:44:16;;;;;;;4.83;3.80;;;;;;;8.32;63.99;100486.85;1714698;83;21204;-63
2021/04/16 03:46:44;;;;;;;5.20;4.03;;;;;;;8.34;64.02;100489.89;1709343;82;21332;-54
2021/04/16 03:49:11;;;;;;;4.40;3.50;;;;;;;8.36;64.07;100490.33;1691658;83;21150;-54
2021/04/16 03:51:55;;;;;;;4.35;3.45;;;;;;;8.37;63.99;100489.45;1691834;85;21199;-64
2021/04/16 03:54:23;;;;;;;5.25;4.10;;;;;;;8.38;63.85;100489.89;1694466;83;21182;-63
2021/04/16 03:56:53;;;;;;;4.12;3.60;;;;;;;8.37;64.04;100489.45;1699453;83;21154;-54
2021/04/16 03:59:22;;;;;;;6.10;4.42;;;;;;;8.38;64.14;100485.95;1691738;83;21175;-63
2021/04/16 04:01:51;;;;;;;5.12;3.65;;;;;;;8.42;64.11;100485.94;1673471;83;21111;-54
2021/04/16 04:04:20;;;;;;;5.08;3.87;;;;;;;8.40;64.16;100493.39;1709688;82;21154;-61
2021/04/16 04:06:50;;;;;;;4.12;3.62;;;;;;;8.44;63.57;100491.20;1710039;84;21163;-54
2021/04/16 04:09:18;;;;;;;4.03;3.40;;;;;;;8.41;63.60;100494.69;1756742;82;21154;-54
2021/04/16 04:11:48;;;;;;;4.70;3.33;;;;;;;8.36;63.74;100496.47;1756243;81;21589;-63
2021/04/16 04:14:17;;;;;;;4.03;3.17;;;;;;;8.38;63.67;100501.27;1738077;80;21157;-64
2021/04/16 04:16:57;;;;;;;3.90;3.40;;;;;;;8.39;63.50;100494.27;1731452;82;21111;-54
2021/04/16 04:19:27;;;;;;;4.28;3.40;;;;;;;8.39;63.81;100496.43;1755887;82;21127;-64
2021/04/16 04:21:57;;;;;;;3.67;2.90;;;;;;;8.43;63.59;100501.26;1754602;82;21111;-54
2021/04/16 04:24:26;;;;;;;3.80;2.98;;;;;;;8.27;63.71;100497.78;1732268;82;21210;-55
2021/04/16 04:26:54;;;;;;;3.45;2.67;;;;;;;8.39;63.81;100497.75;1726429;83;21610;-54
2021/04/16 04:29:24;;;;;;;4.20;2.83;;;;;;;8.29;64.05;100502.14;1726128;82;21161;-64
2021/04/16 04:31:52;;;;;;;3.02;2.37;;;;;;;8.34;63.73;100503.01;1748316;82;21155;-65
2021/04/16 04:34:27;;;;;;;3.40;2.20;;;;;;;8.39;63.51;100510.00;1726268;82;21310;-65
2021/04/16 04:36:58;;;;;;;2.90;2.20;;;;;;;8.44;63.56;100517.44;1743186;82;21598;-54
2021/04/16 04:39:28;;;;;;;;;;;;;;;8.42;63.54;100517.41;1722677;83;21337;-65
2021/04/16 04:41:56;;;;;;;2.72;1.95;;;;;;;8.52;63.55;100519.64;1669944;85;20464;-54
2021/04/16 04:44:24;;;;;;;2.80;2.10;;;;;;;8.52;63.46;100518.75;1748982;82;21123;-54
2021/04/16 04:46:53;;;;;;;3.05;1.87;;;;;;;8.53;63.11;100521.81;1756137;82;21184;-54
2021/04/16 04:49:23;;;;;;;3.02;2.05;;;;;;;8.56;63.04;100521.39;1755337;81;21088;-56
2021/04/16 04:51:53;;;;;;;2.90;2.10;;;;;;;8.53;63.10;100528.37;1732903;81;21167;-65
2021/04/16 04:54:20;;;;;;;3.40;2.00;;;;;;;8.57;63.04;100517.00;1724035;82;21151;-65
2021/04/16 04:56:48;;;;;;;2.80;1.95;;;;;;;8.57;63.11;100526.19;1726615;83;21156;-64
2021/04/16 04:59:15;;;;;;;2.67;1.70;;;;;;;8.57;62.98;100529.70;1748076;80;21160;-65
2021/04/16 05:01:43;;;;;;;3.72;2.05;;;;;;;8.58;63.16;100527.93;1750486;82;21143;-55
2021/04/16 05:04:12;;;;;;;3.08;1.87;;;;;;;8.63;63.32;100535.36;1758698;81;21147;-65
2021/04/16 05:06:41;;;;;;;2.70;1.55;;;;;;;8.65;63.12;100537.55;1761548;81;21609;-65
2021/04/16 05:09:25;;;;;;;2.33;1.62;;;;;;;8.63;62.88;100528.34;1757714;80;21103;-55
2021/04/16 05:15:55;;;;;;;2.25;1.57;;;;;;;8.69;63.10;100534.05;1755263;81;21127;-55
2021/04/16 05:18:23;;;;;;;4.37;1.32;;;;;;;8.83;62.99;100531.83;1725471;83;21283;-67
2021/04/16 05:20:53;;;;;;;3.27;1.40;;;;;;;8.89;62.92;100541.86;1699020;84;21107;-68
2021/04/16 05:23:20;;;;;;;2.83;1.30;;;;;;;8.97;62.86;100540.97;1695978;84;21167;-65
2021/04/16 05:25:48;;;;;;;1.80;1.20;;;;;;;8.94;62.28;100533.96;1712834;83;21159;-54
2021/04/16 05:28:16;;;;;;;2.40;1.17;;;;;;;9.06;62.49;100536.98;1725720;82;21147;-65
2021/04/16 05:30:44;;;;;;;1.98;1.40;;;;;;;9.11;62.05;100539.61;1720657;83;21628;-65
2021/04/16 05:33:11;;;;;;;3.58;1.50;;;;;;;9.10;61.59;100537.41;1691018;83;21182;-54
2021/04/16 05:35:39;;;;;;;2.08;1.50;;;;;;;9.10;61.77;100539.17;1690994;85;21325;-54
2021/04/16 05:38:40;;;;;;;3.90;1.30;;;;;;;9.15;62.02;100550.54;1696433;83;21208;-53
2021/04/16 05:41:07;;;;;;;2.17;1.20;;;;;;;9.07;61.57;100547.50;1706563;83;21593;-54
2021/04/16 05:43:36;;;;;;;1.35;0.95;;;;;;;9.01;61.14;100545.34;1696424;83;21174;-54
2021/04/16 05:46:04;;;;;;;1.42;0.82;;;;;;;8.97;61.24;100550.16;1716492;83;21195;-54
2021/04/16 05:48:33;;;;;;;1.27;0.88;;;;;;;8.99;61.58;100550.58;1726071;83;21306;-66
2021/04/16 05:51:01;;;;;;;2.30;1.20;;;;;;;9.08;61.93;100545.30;1726143;83;21548;-66
2021/04/16 05:53:28;;;;;;;1.95;1.20;;;;;;;9.11;61.49;100551.42;1726159;83;21302;-65
2021/04/16 05:55:57;;;;;;;2.70;1.22;;;;;;;9.17;61.58;100553.58;1725885;83;21129;-54
2021/04/16 05:58:27;;;;;;;1.35;0.80;;;;;;;9.25;61.68;100552.26;1725795;82;21410;-65
2021/04/16 06:00:54;;;;;;;1.75;0.90;;;;;;;9.33;61.24;100545.65;1725695;83;21178;-66
2021/04/16 06:03:22;;;;;;;2.22;1.00;;;;;;;9.40;61.20;100549.11;1724588;82;21621;-65
2021/04/16 06:05:50;;;;;;;1.20;0.70;;;;;;;9.48;61.28;100549.95;1710147;84;21136;-66
2021/04/16 06:08:19;;;;;;;1.72;0.80;;;;;;;9.52;60.98;100552.54;1705574;83;21169;-65
2021/04/16 06:10:48;;;;;;;1.27;0.90;;;;;;;9.62;60.98;100548.55;1705820;83;21192;-54
2021/04/16 06:13:18;;;;;;;1.12;0.60;;;;;;;9.78;60.59;100548.91;1705580;83;21160;-66
2021/04/16 06:15:47;;;;;;;1.37;0.80;;;;;;;9.87;60.34;100555.00;1705922;83;21168;-54
2021/04/16 06:18:15;;;;;;;1.10;0.70;;;;;;;9.85;60.00;100548.87;1705647;84;21176;-54
2021/04/16 06:20:43;;;;;;;1.07;0.65;;;;;;;9.86;59.48;100546.22;1711759;84;21590;-54
2021/04/16 06:23:11;;;;;;;1.60;0.80;;;;;;;9.89;59.59;100556.72;1756304;80;21160;-65
2021/04/16 06:25:38;;;;;;;1.20;0.80;;;;;;;9.94;58.93;100550.09;1756104;82;21269;-54
2021/04/16 06:28:08;;;;;;;1.85;0.90;;;;;;;9.77;59.27;100537.96;1756407;82;21598;-54
2021/04/16 06:30:36;;;;;;;1.72;1.00;;;;;;;9.70;59.42;100551.16;1751090;82;21122;-65
2021/04/16 06:33:29;;;;;;;1.70;1.10;;;;;;;10.14;59.73;100542.52;1726070;83;21187;-54
2021/04/16 06:36:03;;;;;;;2.87;1.15;;;;;;;10.23;59.12;100542.45;1743820;82;21092;-54
2021/04/16 06:38:39;;;;;;;1.62;1.20;;;;;;;10.46;58.86;100537.02;1846157;77;22169;-52
2021/04/16 06:41:24;;;;;;;1.70;1.27;;;;;;;10.64;58.47;100538.60;1784043;80;21709;-53
2021/04/16 06:43:55;;;;;;;2.02;1.35;;;;;;;10.63;58.45;100546.50;1715614;83;21160;-53
2021/04/16 06:46:33;;;;;;;1.75;1.30;;;;;;;10.93;57.94;100541.82;1758394;81;21151;-54
2021/04/16 06:49:08;;;;;;;1.20;1.10;;;;;;;11.00;57.34;100542.18;1762952;81;21292;-54
2021/04/16 06:51:40;;;;;;;1.90;1.35;;;;;;;11.07;57.27;100541.20;1776773;81;21613;-54
2021/04/16 06:54:13;;;;;;;2.25;1.60;;;;;;;11.10;57.03;100532.41;1689493;83;21160;-64
2021/04/16 06:56:45;;;;;;;2.42;2.00;;;;;;;11.32;57.48;100539.59;1758305;81;21154;-54
2021/04/16 06:59:20;;;;;;;2.27;1.60;;;;;;;11.44;55.54;100519.67;1761753;81;21199;-64
2021/04/16 07:01:58;;;;;;;2.37;1.82;;;;;;;11.45;55.02;100524.48;1761233;81;21173;-54
2021/04/16 07:04:46;;;;;;;2.37;1.80;;;;;;;11.41;55.91;100535.52;1730891;83;21577;-64
2021/04/16 07:07:42;;;;;;;3.22;2.42;;;;;;;11.56;55.77;100539.72;1727294;82;21147;-64
2021/04/16 07:10:21;;;;;;;2.83;2.10;;;;;;;11.80;55.63;100539.38;1713103;83;21303;-53
2021/04/16 07:12:51;;;;;;;2.65;2.20;;;;;;;11.97;54.79;100537.81;1720297;82;21154;-65
2021/04/16 07:15:44;;;;;;;2.42;1.92;;;;;;;12.01;54.63;100530.30;1738104;82;21211;-54
2021/04/16 07:18:17;;;;;;;2.85;2.05;;;;;;;11.79;54.05;100537.64;1742597;82;21165;-64
2021/04/16 07:20:44;;;;;;;4.20;2.62;;;;;;;12.07;52.88;100541.20;1738371;82;21154;-54
2021/04/16 07:23:12;;;;;;;4.90;3.27;;;;;;;12.16;54.16;100540.59;1742108;82;21186;-54
2021/04/16 07:25:48;;;;;;;4.70;3.05;;;;;;;12.24;54.11;100541.80;1740860;82;21296;-54
2021/04/16 07:28:54;;;;;;;3.80;2.90;;;;;;;12.34;53.25;100546.04;1734518;82;21605;-54
2021/04/16 07:31:53;;;;;;;4.85;3.55;;;;;;;12.32;53.00;100550.47;1738033;82;21143;-65
2021/04/16 07:34:32;;;;;;;4.12;3.25;;;;;;;12.57;53.05;100549.17;1734739;82;21308;-55
2021/04/16 07:37:13;;;;;;;4.62;3.45;;;;;;;12.62;52.67;100552.14;1710376;84;21329;-54
2021/04/16 07:43:49;;;;;;;4.33;3.65;;;;;;;12.88;52.81;100549.45;1729328;83;21167;-64
2021/04/16 07:46:32;;;;;;;5.67;4.20;;;;;;;13.14;51.95;100545.87;1787763;80;21111;-64
2021/04/16 07:49:20;;;;;;;4.58;3.95;;;;;;;13.27;51.80;100556.63;1787601;80;21200;-64
2021/04/16 07:51:49;;;;;;;5.53;3.12;;;;;;;13.43;51.51;100557.67;1719421;83;21296;-55
2021/04/16 07:54:22;;;;;;;4.15;2.85;;;;;;;13.51;50.02;100555.70;1720001;83;21301;-54
2021/04/16 07:57:08;;;;;;;4.08;2.95;;;;;;;13.59;50.08;100551.12;1756123;81;21304;-64
2021/04/16 08:00:03;;;;;;;3.92;3.08;;;;;;;13.81;50.04;100549.34;1755371;80;21157;-64
2021/04/16 08:02:43;;;;;;;4.12;2.87;;;;;;;13.85;50.19;100552.77;1753569;80;21359;-54
2021/04/16 08:05:29;;;;;;;3.40;2.65;;;;;;;14.03;49.35;100556.75;1756160;82;21272;-54
2021/04/16 08:08:12;;;;;;;4.05;2.77;;;;;;;13.95;48.03;100557.80;1756320;82;21665;-64
2021/04/16 08:10:41;;;;;;;3.47;2.60;;;;;;;13.83;48.77;100550.17;1705795;83;21174;-64
2021/04/16 08:13:14;;;;;;;2.55;2.08;;;;;;;13.63;48.66;100542.70;1756198;81;21320;-64
2021/04/16 08:15:42;;;;;;;3.42;2.90;;;;;;;13.46;48.54;100545.25;1756113;82;21150;-54
2021/04/16 08:18:26;;;;;;;3.42;2.62;;;;;;;13.82;49.18;100549.29;1758710;80;21137;-64
2021/04/16 08:21:04;;;;;;;3.33;2.50;;;;;;;13.98;48.08;100543.65;1787131;80;21139;-54
2021/04/16 08:23:46;;;;;;;4.17;2.80;;;;;;;14.17;48.52;100545.39;1782078;80;21143;-54
2021/04/16 08:26:17;;;;;;;3.30;2.50;;;;;;;14.50;48.32;100544.59;1720116;83;21159;-64
2021/04/16 08:29:21;;;;;;;2.77;2.30;;;;;;;14.65;47.00;100541.98;1758537;81;21286;-64
2021/04/16 08:32:13;;;;;;;3.12;2.52;;;;;;;14.77;46.94;100547.00;1787414;80;21556;-64
2021/04/16 08:34:45;;;;;;;3.72;2.65;;;;;;;14.76;46.67;100543.93;1787149;80;21142;-54
2021/04/16 08:37:21;;;;;;;2.70;2.17;;;;;;;14.82;46.28;100553.48;1780491;80;21170;-54
2021/04/16 08:39:50;;;;;;;5.72;2.70;;;;;;;14.81;45.61;100548.63;1748289;82;21602;-54
2021/04/16 08:42:28;;;;;;;3.75;2.58;;;;;;;14.87;46.40;100551.58;1763891;79;21134;-65
2021/04/16 08:45:04;;;;;;;3.37;3.02;;;;;;;14.87;44.96;100556.41;1769785;81;21556;-65
2021/04/16 08:47:38;;;;;;;3.20;2.30;;;;;;;14.73;45.89;100540.03;1773565;80;21162;-65
2021/04/16 08:50:08;;;;;;;3.25;2.45;;;;;;;14.66;43.53;100544.58;1754086;81;21151;-65
2021/04/16 08:52:55;;;;;;;3.47;2.60;;;;;;;14.61;43.39;100550.92;1769237;81;21151;-54
2021/04/16 08:55:39;;;;;;;3.87;3.00;;;;;;;14.64;44.73;100556.14;1768602;81;21131;-55
2021/04/16 08:58:27;;;;;;;3.90;2.55;;;;;;;14.80;45.54;100544.70;1756609;81;21154;-54
2021/04/16 09:01:01;;;;;;;3.50;2.80;;;;;;;15.02;44.38;100554.25;1730365;82;21253;-54
2021/04/16 09:03:50;;;;;;;4.67;2.40;;;;;;;15.00;43.74;100552.09;1782809;80;21547;-65
2021/04/16 09:06:37;;;;;;;2.80;2.40;;;;;;;14.88;44.09;100545.37;1770163;80;21147;-65
2021/04/16 09:09:07;;;;;;;3.30;2.35;;;;;;;14.90;44.41;100558.13;1779033;80;21640;-65
2021/04/16 09:11:47;;;;;;;3.87;2.67;;;;;;;14.85;43.07;100556.91;1778790;81;21190;-65
2021/04/16 09:14:27;;;;;;;4.75;3.25;;;;;;;14.84;44.96;100552.52;1769583;81;21176;-54
2021/04/16 09:16:59;;;;;;;3.40;2.30;;;;;;;14.99;43.71;100549.03;1712163;84;21168;-65
2021/04/16 09:19:34;;;;;;;3.45;2.45;;;;;;;15.09;43.17;100547.88;1747958;82;21176;-65
2021/04/16 09:22:12;;;;;;;3.95;2.33;;;;;;;14.99;43.10;100549.03;1712377;84;21155;-54
2021/04/16 09:24:55;;;;;;;3.22;2.20;;;;;;;14.98;42.70;100551.27;1748817;81;21325;-65
2021/04/16 09:27:34;;;;;;;3.95;2.77;;;;;;;14.81;42.47;100553.06;1778872;81;21155;-65
2021/04/16 09:30:14;;;;;;;2.72;2.22;;;;;;;14.92;43.85;100549.67;1779060;80;21135;-62
2021/04/16 09:32:53;;;;;;;2.90;2.30;;;;;;;15.08;43.24;100547.45;1781701;80;21577;-65
2021/04/16 09:35:30;;;;;;;3.35;2.45;;;;;;;15.16;43.33;100545.47;1778780;80;21546;-54
2021/04/16 09:38:26;;;;;;;4.33;2.67;;;;;;;14.89;41.96;100554.17;1770359;80;21618;-55
2021/04/16 09:41:19;;;;;;;4.47;2.75;;;;;;;14.80;43.29;100546.88;1829328;77;22553;-53
2021/04/16 09:43:51;;;;;;;5.35;2.60;;;;;;;14.71;43.47;100555.10;1727933;83;21166;-65
2021/04/16 09:46:33;;;;;;;3.98;2.62;;;;;;;14.51;43.18;100555.13;1744504;82;21156;-69
2021/04/16 09:49:25;;;;;;;3.40;2.80;;;;;;;14.39;43.91;100553.67;1728140;82;21122;-55
2021/04/16 09:51:54;;;;;;;4.90;2.90;;;;;;;14.40;45.23;100557.17;1713658;84;21666;-65
2021/04/16 09:54:32;;;;;;;3.60;2.95;;;;;;;14.51;44.08;100566.19;1727816;83;21162;-54
2021/04/16 09:57:08;;;;;;;3.50;2.70;;;;;;;14.79;44.78;100550.44;1739393;82;21155;-54
2021/04/16 09:59:42;;;;;;;3.62;2.92;;;;;;;15.10;42.67;100545.64;1737640;82;21135;-55
2021/04/16 10:02:18;;;;;;;3.72;2.70;;;;;;;15.54;42.52;100541.72;1735516;82;21138;-64
2021/04/16 10:05:19;;;;;;;2.98;1.70;;;;;;;15.81;41.49;100536.02;1717884;83;21638;-55
2021/04/16 10:07:54;;;;;;;2.67;1.75;;;;;;;15.84;37.96;100535.04;1695398;84;21091;-66
2021/04/16 10:10:38;;;;;;;3.92;2.80;;;;;;;15.50;39.10;100546.70;1714786;84;21213;-53
2021/04/16 10:13:29;;;;;;;3.70;3.05;;;;;;;15.30;40.04;100546.82;1722961;83;21128;-54
2021/04/16 10:15:58;;;;;;;5.35;3.85;;;;;;;15.06;41.15;100557.67;1714940;84;21195;-54
2021/04/16 10:18:32;;;;;;;4.58;3.65;;;;;;;14.99;41.74;100550.36;1699172;83;21169;-65
2021/04/16 10:21:21;;;;;;;4.80;3.52;;;;;;;14.89;42.57;100557.70;1715007;83;21175;-54
2021/04/16 12:39:52;;;;;;;2.92;1.85;;;;;;;11.68;58.38;100580.84;1778526;80;21899;-62
2021/04/16 12:42:19;;;;;;;4.87;2.00;;;;;;;11.94;56.77;100573.45;1777297;81;21136;-55
2021/04/16 12:44:51;;;;;;;2.22;1.30;;;;;;;12.12;56.55;100569.70;1778813;81;21600;-54
2021/04/16 12:47:30;;;;;;;2.27;1.42;;;;;;;12.33;54.62;100565.41;1776022;81;21135;-55
2021/04/16 12:50:01;;;;;;;3.30;1.55;;;;;;;12.70;55.89;100570.95;1754528;81;21116;-62
2021/04/16 12:52:29;;;;;;;3.37;1.80;;;;;;;13.06;53.90;100558.79;1748473;82;21539;-62
2021/04/16 12:54:56;;;;;;;6.42;4.67;;;;;;;13.24;53.01;100562.86;1748003;82;21135;-55
2021/04/16 12:57:38;;;;;;;3.42;2.62;;;;;;;13.24;51.40;100561.55;1748185;82;21294;-56
2021/04/16 13:00:19;;;;;;;2.67;2.00;;;;;;;13.26;50.96;100564.14;1747955;82;21155;-61
2021/04/16 13:02:47;;;;;;;3.45;2.25;;;;;;;13.13;49.79;100576.73;1747744;81;21288;-53
2021/04/16 13:05:16;;;;;;;2.80;1.62;;;;;;;12.94;50.64;100571.80;1748012;82;21159;-54
2021/04/16 13:07:44;;;;;;;1.70;1.10;;;;;;;12.91;50.40;100579.78;1750091;81;21133;-56
2021/04/16 13:10:15;;;;;;;2.08;1.37;;;;;;;12.93;50.43;100570.52;1748030;81;21463;-53
2021/04/16 13:12:44;;;;;;;2.52;1.85;;;;;;;12.93;50.95;100566.55;1748129;82;21104;-54
2021/04/16 13:15:13;;;;;;;1.65;1.30;;;;;;;12.94;50.61;100553.30;1752557;81;21116;-61
2021/04/16 13:17:51;;;;;;;2.85;1.50;;;;;;;12.99;50.75;100555.87;1699693;83;21170;-54
2021/04/16 13:20:20;;;;;;;2.98;1.65;;;;;;;13.04;50.33;100555.77;1748062;82;21160;-54
2021/04/16 13:22:48;;;;;;;2.17;1.30;;;;;;;13.08;50.28;100554.81;1748493;82;21120;-54
2021/04/16 13:25:18;;;;;;;2.58;1.80;;;;;;;13.14;50.53;100556.02;1752288;81;21159;-54
2021/04/16 13:27:46;;;;;;;2.65;2.10;;;;;;;13.20;48.88;100553.69;1752016;81;21123;-54
2021/04/16 13:30:15;;;;;;;3.02;2.10;;;;;;;13.31;49.39;100558.74;1748061;82;21563;-63
2021/04/16 13:32:46;;;;;;;3.47;2.17;;;;;;;13.37;48.22;100554.22;1748353;81;21135;-63
2021/04/16 13:35:35;;;;;;;3.00;1.80;;;;;;;13.52;49.17;100559.66;1705764;84;21586;-64
2021/04/16 13:38:06;;;;;;;2.77;1.90;;;;;;;13.51;48.04;100556.59;1745806;81;21249;-54
2021/04/16 13:40:37;;;;;;;4.58;1.92;;;;;;;13.67;46.93;100553.62;1713316;83;21752;-54
2021/04/16 13:43:07;;;;;;;2.60;1.70;;;;;;;13.54;46.18;100546.39;1785410;80;21622;-64
2021/04/16 13:45:36;;;;;;;2.25;1.77;;;;;;;13.58;45.84;100547.21;1763153;80;21578;-54
2021/04/16 13:48:05;;;;;;;3.50;2.10;;;;;;;13.58;45.95;100553.83;1757906;80;21254;-54
2021/04/16 13:50:33;;;;;;;2.83;2.10;;;;;;;12.75;47.49;100551.46;1758485;80;21277;-54
2021/04/16 13:53:01;;;;;;;3.12;2.40;;;;;;;13.74;47.65;100540.66;1783987;80;21151;-65
2021/04/16 13:55:30;;;;;;;3.47;2.00;;;;;;;14.16;48.64;100550.70;1771615;80;21115;-54
2021/04/16 13:57:57;;;;;;;4.22;2.02;;;;;;;14.46;45.61;100545.10;1775924;80;21590;-54
2021/04/16 14:01:12;;;;;;;1.98;1.37;;;;;;;14.58;45.16;100551.41;1770259;80;21615;-53
2021/04/16 14:03:47;;;;;;;2.42;1.52;;;;;;;14.53;42.41;100548.48;1759690;80;21570;-54
2021/04/16 14:06:20;;;;;;;5.42;1.70;;;;;;;14.30;42.30;100549.92;1757553;80;21174;-54
2021/04/16 14:08:54;;;;;;;3.95;1.72;;;;;;;14.22;42.71;100548.80;1769879;80;21442;-54
2021/04/16 14:11:23;;;;;;;2.10;1.52;;;;;;;14.06;41.84;100546.10;1787160;80;21841;-65
2021/04/16 14:13:50;;;;;;;2.37;1.50;;;;;;;13.94;42.94;100547.27;1768486;80;21804;-65
2021/04/16 14:16:48;;;;;;;2.40;1.55;;;;;;;13.96;43.95;100554.25;1774902;80;21582;-54
2021/04/16 14:19:24;;;;;;;4.55;1.80;;;;;;;13.92;44.29;100554.38;1749694;81;21193;-54
2021/04/16 14:21:54;;;;;;;2.60;1.82;;;;;;;13.88;43.93;100556.67;1724456;83;21599;-65